METAR Data
IDs: Format: Raw Decoded Include TAF

Data at: 1518 UTC 21 Sep 2018

KI19 211455Z AUTO 23010KT 10SM CLR 28/20 A3004 RMK AO2 T02800197
KI19 211435Z AUTO 23010G16KT 10SM CLR 27/19 A3004 RMK AO2 T02720193
KI19 211408Z AUTO 23010G16KT 10SM CLR 27/19 A3004 RMK AO2 T02650193
KI19 211359Z AUTO 23011G17KT 10SM CLR 26/19 A3003 RMK AO2
KI19 211335Z AUTO 23010KT 10SM CLR 26/19 A3004 RMK AO2 T02560193
KI19 211315Z AUTO 22010KT 10SM CLR 25/19 A3003 RMK AO2 T02500193
KI19 211255Z AUTO 22010G16KT 10SM CLR 25/19 A3003 RMK AO2 T02450190
KI19 211235Z AUTO 21009G14KT 10SM CLR 24/19 A3003 RMK AO2 T02400191
KI19 211215Z AUTO 20009KT 10SM CLR 23/19 A3003 RMK AO2 T02340191
KI19 211155Z AUTO 21008G14KT 10SM CLR 23/19 A3003 RMK AO2 T02300192 10238 20226
KI19 211135Z AUTO 20009KT 10SM CLR 23/19 A3003 RMK AO2 T02270192
KI19 211115Z AUTO 20008KT 10SM CLR 23/19 A3003 RMK AO2 T02270193
KI19 211055Z AUTO 21008KT 10SM CLR 23/20 A3003 RMK AO2 T02270195
KI19 211035Z AUTO 20008KT 10SM CLR 23/20 A3003 RMK AO2 T02260197
KI19 211015Z AUTO 20007KT 10SM CLR 23/20 A3003 RMK AO2 T02270198
KI19 210955Z AUTO 21007KT 10SM CLR 23/20 A3003 RMK AO2 T02260200
KI19 210935Z AUTO 21006KT 10SM CLR 23/20 A3003 RMK AO2 T02280200
KI19 210915Z AUTO 21007KT 10SM CLR 23/20 A3003 RMK AO2 T02280200
KI19 210855Z AUTO 21006KT 10SM CLR 23/20 A3003 RMK AO2 T02300200
KI19 210835Z AUTO 22007KT 10SM CLR 23/20 A3003 RMK AO2 T02320200
KI19 210815Z AUTO 21007KT 10SM CLR 24/20 A3003 RMK AO2 T02350200
KI19 210755Z AUTO 21008KT 10SM CLR 24/20 A3003 RMK AO2 T02350200
KI19 210735Z AUTO 20008KT 10SM CLR 24/20 A3003 RMK AO2 T02350201
KI19 210715Z AUTO 21007KT 10SM CLR 24/20 A3004 RMK AO2 T02350201
KI19 210655Z AUTO 21008KT 10SM CLR 24/20 A3004 RMK AO2 T02370200
KI19 210635Z AUTO 21007KT 10SM CLR 24/20 A3004 RMK AO2 T02380201
KI19 210615Z AUTO 21005KT 10SM CLR 24/20 A3004 RMK AO2 T02370201
KI19 210555Z AUTO 20005KT 10SM CLR 24/20 A3004 RMK AO2 T02380202 10276 20238 403250205
KI19 210535Z AUTO 19005KT 10SM CLR 24/20 A3004 RMK AO2 T02420202
KI19 210515Z AUTO 19006KT 10SM CLR 25/20 A3004 RMK AO2 T02450202
KI19 210455Z AUTO 20005KT 10SM CLR 25/21 A3004 RMK AO2 T02450205
KI19 210435Z AUTO 19006KT 10SM CLR 24/21 A3004 RMK AO2 T02440205
KI19 210415Z AUTO 19005KT 10SM CLR 25/20 A3004 RMK AO2 T02470204
KI19 210355Z AUTO 19006KT 10SM CLR 25/21 A3004 RMK AO2 T02490205
KI19 210335Z AUTO 20006KT 10SM CLR 25/20 A3004 RMK AO2 T02510204
KI19 210315Z AUTO 20006KT 10SM CLR 25/20 A3004 RMK AO2 T02520204
KI19 210255Z AUTO 19007KT 10SM CLR 25/20 A3003 RMK AO2 T02530204
KI19 210235Z AUTO 18004KT 10SM CLR 25/20 A3004 RMK AO2 T02540203
KI19 210215Z AUTO 19005KT 10SM CLR 26/20 A3004 RMK AO2 T02560203
KI19 210155Z AUTO 18005KT 10SM CLR 26/20 A3004 RMK AO2 T02600203
KI19 210135Z AUTO 19006KT 10SM CLR 26/20 A3004 RMK AO2 T02600203
KI19 210115Z AUTO 18003KT 10SM CLR 26/21 A3004 RMK AO2 T02630205
KI19 210055Z AUTO 17004KT 10SM CLR 27/21 A3004 RMK AO2 T02660205
KI19 210035Z AUTO 19005KT 10SM CLR 27/20 A3004 RMK AO2 T02700203
KI19 210015Z AUTO 19004KT 10SM CLR 27/20 A3004 RMK AO2 T02730203
KI19 202355Z AUTO 20004KT 10SM CLR 28/20 A3004 RMK AO2 T02770201 10325 20277
KI19 202335Z AUTO 20005KT 10SM CLR 28/20 A3004 RMK AO2 T02810200
KI19 202315Z AUTO 20005KT 10SM CLR 29/20 A3004 RMK AO2 T02850200
KI19 202255Z AUTO 20005KT 10SM CLR 29/20 A3004 RMK AO2 T02920197
KI19 202235Z AUTO 21007KT 10SM CLR 30/20 A3003 RMK AO2 T02970195
KI19 202215Z AUTO 21008KT 10SM CLR 30/19 A3002 RMK AO2 T03040191
KI19 202203Z AUTO 20008KT 10SM CLR 31/19 A3003 RMK AO2 T03070192
KI19 202115Z AUTO 20010KT 10SM CLR 32/19 A3003 RMK AO2 T03150191
KI19 202055Z AUTO 20008KT 10SM CLR 32/19 A3004 RMK AO2 T03160186
KI19 202035Z AUTO 23008KT 10SM CLR 32/18 A3004 RMK AO2 T03200184
KI19 202015Z AUTO 25007KT 220V340 10SM CLR 32/19 A3004 RMK AO2 T03190186
KI19 201955Z AUTO 23007KT 10SM CLR 31/19 A3005 RMK AO2 T03110186
KI19 201935Z AUTO 25009KT 10SM SCT048 32/18 A3005 RMK AO2 T03200182
KI19 201915Z AUTO 26006KT 10SM SCT048 32/18 A3005 RMK AO2 T03240183
KI19 201855Z AUTO 27007KT 10SM SCT050 32/19 A3006 RMK AO2 T03170188
KI19 201836Z AUTO 23010KT 10SM SCT048 SCT120 32/19 A3007 RMK AO2 T03190187
KI19 201815Z AUTO 25008KT 10SM SCT046 SCT050 SCT120 31/19 A3008 RMK AO2 T03130192
KI19 201755Z AUTO 24012G15KT 10SM SCT046 SCT060 32/19 A3008 RMK AO2 T03190191 10319 20210
KI19 201735Z AUTO 25010G14KT 10SM CLR 32/20 A3009 RMK AO2 T03150197
KI19 201715Z AUTO 23008G14KT 10SM CLR 31/19 A3010 RMK AO2 T03120194
KI19 201655Z AUTO 24009KT 10SM CLR 31/19 A3010 RMK AO2 T03090194
KI19 201635Z AUTO 25010KT 10SM CLR 30/19 A3010 RMK AO2 T03040193
KI19 201615Z AUTO 25008KT 10SM CLR 30/20 A3011 RMK AO2 T03020198
KI19 201555Z AUTO 23006KT 10SM CLR 30/20 A3011 RMK AO2 T02980203
KI19 201535Z AUTO 21005KT 10SM CLR 29/21 A3011 RMK AO2 T02910207
KI19 201515Z AUTO 22005KT 10SM CLR 29/21 A3012 RMK AO2 T02850209
KI19 201455Z AUTO 21006KT 10SM CLR 28/21 A3012 RMK AO2 T02810209
KI19 201435Z AUTO 23005KT 10SM CLR 27/21 A3012 RMK AO2 T02700207
KI19 201415Z AUTO 21006KT 10SM CLR 26/21 A3012 RMK AO2 T02630205
KI19 201355Z AUTO 20005KT 10SM CLR 26/21 A3011 RMK AO2 T02560206
KI19 201335Z AUTO 20006KT 10SM CLR 25/21 A3011 RMK AO2 T02470206
KI19 201315Z AUTO 20004KT 10SM CLR 24/21 A3011 RMK AO2 T02350206
KI19 201255Z AUTO 19004KT 10SM CLR 23/20 A3011 RMK AO2 T02250203
KI19 201235Z AUTO 19004KT 10SM CLR 22/20 A3010 RMK AO2 T02170201
KI19 201215Z AUTO 18004KT 10SM CLR 21/20 A3010 RMK AO2 T02130198
KI19 201155Z AUTO 18004KT 10SM CLR 21/20 A3010 RMK AO2 T02100197 10230 20205
KI19 201135Z AUTO 17003KT 10SM SCT110 21/20 A3009 RMK AO2 T02100197
KI19 201115Z AUTO 00000KT 10SM BKN110 21/20 A3009 RMK AO2 T02090196
KI19 201055Z AUTO 00000KT 10SM OVC110 21/20 A3009 RMK AO2 T02070196
KI19 201035Z AUTO 15003KT 10SM BKN110 21/20 A3008 RMK AO2 T02080196
KI19 201015Z AUTO 00000KT 10SM CLR 21/20 A3008 RMK AO2 T02100196
KI19 200955Z AUTO 00000KT 10SM CLR 21/20 A3008 RMK AO2 T02090196
KI19 200935Z AUTO 00000KT 10SM CLR 21/20 A3008 RMK AO2 T02100197
KI19 200915Z AUTO 00000KT 10SM CLR 21/20 A3008 RMK AO2 T02130198
KI19 200855Z AUTO 00000KT 10SM CLR 22/20 A3007 RMK AO2 T02150198
KI19 200835Z AUTO 00000KT 10SM CLR 21/20 A3007 RMK AO2 T02130199
KI19 200815Z AUTO 13003KT 10SM CLR 22/20 A3006 RMK AO2 T02170200
KI19 200755Z AUTO 13004KT 10SM CLR 22/20 A3006 RMK AO2 T02200200
KI19 200735Z AUTO 13004KT 10SM CLR 22/20 A3006 RMK AO2 T02210200
KI19 200715Z AUTO 14004KT 10SM CLR 22/20 A3006 RMK AO2 T02230200
KI19 200655Z AUTO 13004KT 10SM CLR 23/20 A3006 RMK AO2 T02250200
KI19 200635Z AUTO 14004KT 10SM CLR 23/20 A3005 RMK AO2 T02250200
KI19 200615Z AUTO 13007KT 10SM CLR 23/20 A3005 RMK AO2 T02270198
KI19 200555Z AUTO 13007KT 10SM CLR 23/20 A3005 RMK AO2 T02300198 10260 20220 403050195
KI19 200535Z AUTO 13006KT 10SM CLR 23/20 A3005 RMK AO2 T02320197
KI19 200515Z AUTO 13009KT 10SM CLR 24/20 A3005 RMK AO2 T02350196
KI19 200455Z AUTO 13009KT 10SM CLR 24/20 A3005 RMK AO2 T02350196
KI19 200435Z AUTO 13008KT 10SM CLR 23/20 A3005 RMK AO2 T02330196
KI19 200415Z AUTO 12007KT 10SM CLR 23/20 A3006 RMK AO2 T02310196
KI19 200355Z AUTO 10004KT 10SM CLR 23/20 A3006 RMK AO2 T02280195
KI19 200335Z AUTO 10003KT 10SM CLR 23/19 A3006 RMK AO2 T02280194